Time;durP1;ratioP1;P1;durP2;ratioP2;P2;SDS_P1;SDS_P2;PMS_P1;PMS_P2;Temp;Humidity;BMP_temperature;BMP_pressure;BME280_temperature;BME280_humidity;BME280_pressure;Samples;Min_cycle;Max_cycle;Signal;HPM_P1;HPM_P2
2023/06/06 00:00:33;;;;;;;8.43;4.43;;;;;;;;;;5016053;28;20542;-64
2023/06/06 00:02:59;;;;;;;8.52;4.35;;;;;;;;;;5017609;28;20045;-64
2023/06/06 00:05:27;;;;;;;8.57;4.50;;;;;;;;;;5022332;28;20025;-63
2023/06/06 00:07:54;;;;;;;8.05;4.18;;;;;;;;;;5020385;28;20044;-63
2023/06/06 00:10:20;;;;;;;10.68;4.40;;;;;;;;;;5024390;28;20033;-63
2023/06/06 00:12:46;;;;;;;9.23;4.50;;;;;;;;;;5013125;28;20053;-63
2023/06/06 00:15:15;;;;;;;10.25;4.40;;;;;;;;;;5017330;28;20381;-63
2023/06/06 00:17:42;;;;;;;8.88;4.40;;;;;;;;;;5019098;28;20115;-64
2023/06/06 00:20:09;;;;;;;8.73;4.40;;;;;;;;;;5017275;28;20053;-63
2023/06/06 00:22:36;;;;;;;7.25;4.32;;;;;;;;;;4998461;28;20064;-63
2023/06/06 00:25:04;;;;;;;8.65;4.95;;;;;;;;;;5016514;28;20108;-62
2023/06/06 00:27:31;;;;;;;6.75;4.63;;;;;;;;;;5021568;28;20410;-63
2023/06/06 00:29:58;;;;;;;8.10;4.07;;;;;;;;;;4994379;28;20053;-62
2023/06/06 00:32:26;;;;;;;10.18;4.25;;;;;;;;;;5015431;28;20052;-62
2023/06/06 00:34:54;;;;;;;7.70;3.80;;;;;;;;;;5021293;28;20105;-62
2023/06/06 00:37:20;;;;;;;8.35;4.75;;;;;;;;;;5016916;28;20321;-62
2023/06/06 00:39:47;;;;;;;8.35;4.70;;;;;;;;;;5007247;28;20048;-62
2023/06/06 00:42:13;;;;;;;8.48;4.40;;;;;;;;;;4997610;28;20030;-63
2023/06/06 00:44:40;;;;;;;7.55;4.80;;;;;;;;;;5019979;28;20438;-62
2023/06/06 00:47:07;;;;;;;8.07;4.28;;;;;;;;;;5021781;28;20049;-62
2023/06/06 00:49:36;;;;;;;7.30;4.40;;;;;;;;;;5027983;28;20403;-62
2023/06/06 00:52:03;;;;;;;8.43;4.18;;;;;;;;;;5022156;28;20026;-62
2023/06/06 00:54:31;;;;;;;6.43;4.20;;;;;;;;;;5015609;28;20054;-63
2023/06/06 00:56:57;;;;;;;7.53;4.38;;;;;;;;;;4998253;28;20046;-63
2023/06/06 00:59:24;;;;;;;8.43;4.60;;;;;;;;;;5011301;28;20483;-63
2023/06/06 01:01:51;;;;;;;10.95;4.93;;;;;;;;;;5010229;28;20041;-63
2023/06/06 01:04:18;;;;;;;7.32;4.65;;;;;;;;;;5011702;28;20041;-62
2023/06/06 01:06:45;;;;;;;11.30;4.72;;;;;;;;;;5023558;28;20048;-62
2023/06/06 01:09:16;;;;;;;6.35;4.45;;;;;;;;;;5023072;28;20049;-62
2023/06/06 01:11:50;;;;;;;9.68;4.60;;;;;;;;;;5025665;28;20034;-63
2023/06/06 01:14:28;;;;;;;7.72;4.35;;;;;;;;;;4998507;28;20411;-62
2023/06/06 01:16:57;;;;;;;9.05;5.20;;;;;;;;;;5000506;28;20041;-62
2023/06/06 01:19:29;;;;;;;9.95;4.78;;;;;;;;;;5025071;28;20034;-63
2023/06/06 01:21:57;;;;;;;9.10;4.78;;;;;;;;;;5003610;28;20036;-63
2023/06/06 01:24:32;;;;;;;7.15;4.40;;;;;;;;;;5017747;28;20419;-63
2023/06/06 01:27:03;;;;;;;8.10;4.45;;;;;;;;;;5023120;28;20033;-62
2023/06/06 01:29:30;;;;;;;8.20;4.75;;;;;;;;;;5020924;28;20088;-62
2023/06/06 01:32:08;;;;;;;9.15;4.88;;;;;;;;;;5004247;28;20037;-62
2023/06/06 01:34:48;;;;;;;8.25;4.85;;;;;;;;;;4993353;28;20049;-62
2023/06/06 01:37:45;;;;;;;11.95;5.28;;;;;;;;;;5018642;28;20041;-62
2023/06/06 01:40:14;;;;;;;8.50;4.70;;;;;;;;;;4984752;28;20045;-62
2023/06/06 01:42:45;;;;;;;7.45;4.72;;;;;;;;;;5013683;28;20535;-62
2023/06/06 01:45:17;;;;;;;8.10;5.00;;;;;;;;;;4998993;28;20034;-62
2023/06/06 01:47:44;;;;;;;10.57;4.80;;;;;;;;;;4994394;28;20030;-62
2023/06/06 01:50:11;;;;;;;9.10;4.93;;;;;;;;;;5002787;28;20042;-62
2023/06/06 01:52:37;;;;;;;8.63;4.90;;;;;;;;;;5019544;28;20403;-62
2023/06/06 01:55:05;;;;;;;10.32;4.50;;;;;;;;;;5019595;28;20026;-61
2023/06/06 01:57:32;;;;;;;8.65;4.97;;;;;;;;;;4992439;28;20045;-62
2023/06/06 02:00:00;;;;;;;8.13;4.95;;;;;;;;;;5004967;28;20401;-62
2023/06/06 02:02:27;;;;;;;11.57;5.50;;;;;;;;;;5005824;28;20044;-62
2023/06/06 02:04:53;;;;;;;9.63;5.13;;;;;;;;;;5008864;28;20059;-62
2023/06/06 02:07:20;;;;;;;9.85;5.45;;;;;;;;;;4982173;28;20042;-61
2023/06/06 02:09:47;;;;;;;7.30;5.07;;;;;;;;;;4995238;28;20496;-63
2023/06/06 02:12:14;;;;;;;8.50;5.18;;;;;;;;;;5010729;28;20045;-62
2023/06/06 02:14:41;;;;;;;9.90;5.53;;;;;;;;;;4999777;28;20054;-62
2023/06/06 02:17:07;;;;;;;8.32;4.75;;;;;;;;;;4999770;28;20030;-62
2023/06/06 02:19:34;;;;;;;9.02;4.90;;;;;;;;;;5025675;28;20414;-61
2023/06/06 02:22:00;;;;;;;11.00;5.38;;;;;;;;;;4998602;28;20041;-62
2023/06/06 02:24:27;;;;;;;10.63;5.25;;;;;;;;;;5001725;28;20105;-62
2023/06/06 02:26:57;;;;;;;10.00;5.25;;;;;;;;;;5001448;28;20033;-62
2023/06/06 02:29:24;;;;;;;9.38;4.53;;;;;;;;;;4998782;28;20065;-62
2023/06/06 02:31:53;;;;;;;8.90;5.00;;;;;;;;;;5026698;28;20038;-62
2023/06/06 02:34:21;;;;;;;8.32;5.13;;;;;;;;;;5011691;28;20040;-61
2023/06/06 02:36:49;;;;;;;9.88;5.05;;;;;;;;;;5012863;28;20549;-62
2023/06/06 02:39:15;;;;;;;9.07;5.30;;;;;;;;;;5015475;28;20064;-62
2023/06/06 02:41:42;;;;;;;8.77;5.32;;;;;;;;;;4998786;28;20054;-61
2023/06/06 02:44:08;;;;;;;9.07;4.88;;;;;;;;;;5001017;28;21773;-62
2023/06/06 02:46:34;;;;;;;9.20;5.15;;;;;;;;;;5009232;28;20399;-62
2023/06/06 02:49:01;;;;;;;11.23;5.85;;;;;;;;;;4998696;28;20415;-62
2023/06/06 02:51:27;;;;;;;9.70;5.38;;;;;;;;;;4994935;28;20053;-62
2023/06/06 02:53:53;;;;;;;8.85;5.00;;;;;;;;;;5021654;28;20068;-62
2023/06/06 02:56:20;;;;;;;8.60;4.80;;;;;;;;;;5019983;28;20049;-62
2023/06/06 02:58:47;;;;;;;11.05;5.82;;;;;;;;;;5007449;28;20050;-62
2023/06/06 03:01:13;;;;;;;8.93;5.28;;;;;;;;;;5001784;28;20033;-62
2023/06/06 03:03:40;;;;;;;9.90;5.45;;;;;;;;;;4997080;28;20045;-63
2023/06/06 03:06:07;;;;;;;10.77;5.65;;;;;;;;;;4986651;28;20042;-62
2023/06/06 03:08:33;;;;;;;10.07;5.97;;;;;;;;;;5007191;28;20057;-62
2023/06/06 03:11:00;;;;;;;9.25;5.45;;;;;;;;;;5007735;28;20052;-62
2023/06/06 03:13:26;;;;;;;11.27;5.70;;;;;;;;;;5018721;28;20500;-62
2023/06/06 03:15:53;;;;;;;13.35;6.13;;;;;;;;;;4991168;28;20380;-62
2023/06/06 03:18:20;;;;;;;10.88;5.97;;;;;;;;;;4980017;28;20041;-62
2023/06/06 03:20:53;;;;;;;9.10;5.38;;;;;;;;;;4994245;28;20042;-63
2023/06/06 03:23:21;;;;;;;11.50;5.50;;;;;;;;;;4994307;28;20040;-62
2023/06/06 03:25:51;;;;;;;11.27;5.47;;;;;;;;;;5003672;28;20049;-62
2023/06/06 03:28:20;;;;;;;10.80;5.85;;;;;;;;;;5006734;28;20033;-63
2023/06/06 03:30:47;;;;;;;12.00;5.78;;;;;;;;;;5000807;28;20053;-63
2023/06/06 03:33:15;;;;;;;11.77;5.93;;;;;;;;;;4993252;28;20046;-62
2023/06/06 03:35:43;;;;;;;14.00;6.07;;;;;;;;;;4999278;28;20038;-63
2023/06/06 03:38:09;;;;;;;12.60;5.72;;;;;;;;;;4995657;28;20038;-63
2023/06/06 03:40:35;;;;;;;11.48;5.88;;;;;;;;;;5003895;28;20041;-63
2023/06/06 03:43:02;;;;;;;12.50;6.07;;;;;;;;;;5006776;28;20037;-63
2023/06/06 03:45:30;;;;;;;11.68;6.40;;;;;;;;;;4999560;28;20345;-63
2023/06/06 03:47:56;;;;;;;15.05;6.40;;;;;;;;;;4995352;28;20046;-62
2023/06/06 03:50:23;;;;;;;10.13;5.78;;;;;;;;;;4999771;28;20418;-63
2023/06/06 03:52:49;;;;;;;11.38;6.22;;;;;;;;;;5025492;28;20040;-63
2023/06/06 03:55:15;;;;;;;13.73;6.60;;;;;;;;;;4989822;28;20042;-62
2023/06/06 03:57:43;;;;;;;11.55;6.32;;;;;;;;;;5014561;28;20049;-62
2023/06/06 04:00:10;;;;;;;13.10;6.07;;;;;;;;;;5002935;28;20045;-63
2023/06/06 04:02:40;;;;;;;15.07;6.97;;;;;;;;;;5020082;28;20568;-62
2023/06/06 04:05:07;;;;;;;18.27;6.15;;;;;;;;;;5006683;28;20731;-62
2023/06/06 04:07:34;;;;;;;12.35;7.00;;;;;;;;;;5002125;28;20057;-62
2023/06/06 04:10:01;;;;;;;11.88;6.00;;;;;;;;;;5008491;28;20425;-62
2023/06/06 04:12:27;;;;;;;12.65;6.57;;;;;;;;;;4995855;28;20044;-61
2023/06/06 04:14:54;;;;;;;12.48;6.45;;;;;;;;;;4999253;28;20053;-62
2023/06/06 04:17:21;;;;;;;11.27;6.03;;;;;;;;;;5022176;28;20057;-62
2023/06/06 04:19:48;;;;;;;13.25;6.55;;;;;;;;;;4993743;28;20037;-61
2023/06/06 04:22:15;;;;;;;13.90;6.60;;;;;;;;;;5026709;28;20037;-62
2023/06/06 04:24:41;;;;;;;13.85;6.82;;;;;;;;;;5000894;28;20029;-62
2023/06/06 04:27:08;;;;;;;11.95;6.25;;;;;;;;;;5002533;28;20129;-62
2023/06/06 04:29:35;;;;;;;11.65;5.72;;;;;;;;;;5003480;28;20034;-63
2023/06/06 04:32:03;;;;;;;11.85;6.68;;;;;;;;;;4991553;28;20490;-62
2023/06/06 04:34:30;;;;;;;18.95;8.02;;;;;;;;;;5004605;28;20045;-62
2023/06/06 04:37:03;;;;;;;18.70;7.80;;;;;;;;;;4993838;28;20029;-63
2023/06/06 04:39:34;;;;;;;12.00;6.15;;;;;;;;;;5002193;28;20037;-60
2023/06/06 04:42:07;;;;;;;10.88;5.60;;;;;;;;;;5004588;28;20041;-63
2023/06/06 04:44:34;;;;;;;13.23;6.22;;;;;;;;;;4996225;28;20041;-66
2023/06/06 04:47:01;;;;;;;12.77;6.53;;;;;;;;;;5010137;28;20042;-61
2023/06/06 04:49:28;;;;;;;12.07;6.50;;;;;;;;;;4995639;28;20412;-59
2023/06/06 04:52:02;;;;;;;14.82;6.60;;;;;;;;;;4980650;28;20471;-58
2023/06/06 04:54:30;;;;;;;20.75;7.07;;;;;;;;;;5025350;28;20045;-58
2023/06/06 04:56:57;;;;;;;15.77;6.50;;;;;;;;;;5022197;28;20045;-60
2023/06/06 04:59:23;;;;;;;14.13;6.30;;;;;;;;;;5026745;28;20037;-59
2023/06/06 05:01:49;;;;;;;14.00;6.45;;;;;;;;;;5000971;28;20432;-60
2023/06/06 05:04:15;;;;;;;17.65;7.50;;;;;;;;;;5023176;28;20037;-60
2023/06/06 05:06:42;;;;;;;14.77;7.20;;;;;;;;;;5011985;28;20494;-60
2023/06/06 05:09:08;;;;;;;17.15;6.82;;;;;;;;;;5004202;28;20040;-59
2023/06/06 05:11:35;;;;;;;14.75;7.13;;;;;;;;;;5009959;28;20034;-59
2023/06/06 05:14:01;;;;;;;12.73;6.78;;;;;;;;;;5025985;28;20035;-60
2023/06/06 05:16:27;;;;;;;14.43;7.13;;;;;;;;;;5020594;28;20037;-60
2023/06/06 05:18:53;;;;;;;16.35;6.50;;;;;;;;;;5029408;28;20045;-60
2023/06/06 05:21:20;;;;;;;16.10;6.38;;;;;;;;;;5015124;28;20042;-60
2023/06/06 05:23:47;;;;;;;15.43;7.35;;;;;;;;;;5013664;28;20036;-60
2023/06/06 05:26:13;;;;;;;16.25;7.45;;;;;;;;;;5022734;28;20044;-60
2023/06/06 05:28:39;;;;;;;13.30;7.93;;;;;;;;;;5027288;28;20048;-60
2023/06/06 05:31:07;;;;;;;15.55;7.10;;;;;;;;;;5023195;28;20033;-60
2023/06/06 05:33:34;;;;;;;13.10;6.68;;;;;;;;;;5018414;28;20063;-60
2023/06/06 05:36:00;;;;;;;12.02;6.82;;;;;;;;;;5022545;28;20068;-60
2023/06/06 05:38:27;;;;;;;12.05;6.75;;;;;;;;;;5017849;28;20050;-60
2023/06/06 05:40:53;;;;;;;12.43;6.68;;;;;;;;;;5016442;28;20418;-60
2023/06/06 05:43:19;;;;;;;13.85;6.70;;;;;;;;;;5013164;28;20488;-60
2023/06/06 05:45:45;;;;;;;11.10;5.80;;;;;;;;;;5021226;28;20025;-60
2023/06/06 05:48:11;;;;;;;8.85;5.82;;;;;;;;;;5019822;28;20057;-60
2023/06/06 05:50:38;;;;;;;7.15;5.10;;;;;;;;;;5029107;28;20061;-60
2023/06/06 05:53:04;;;;;;;9.13;5.32;;;;;;;;;;5019546;28;20036;-60
2023/06/06 05:55:32;;;;;;;9.75;5.13;;;;;;;;;;5013747;28;20049;-60
2023/06/06 05:57:59;;;;;;;7.88;4.85;;;;;;;;;;5031657;28;20040;-60
2023/06/06 06:00:26;;;;;;;6.07;4.50;;;;;;;;;;5015081;28;20034;-60
2023/06/06 06:02:55;;;;;;;5.72;4.43;;;;;;;;;;5000668;28;20056;-60
2023/06/06 06:05:23;;;;;;;8.60;4.13;;;;;;;;;;5014088;28;20503;-60
2023/06/06 06:07:54;;;;;;;11.48;4.65;;;;;;;;;;5013155;28;20447;-60
2023/06/06 06:10:21;;;;;;;5.78;4.03;;;;;;;;;;5018404;28;20046;-60
2023/06/06 06:12:47;;;;;;;5.20;4.32;;;;;;;;;;5019623;28;20041;-60
2023/06/06 06:15:13;;;;;;;6.07;3.95;;;;;;;;;;5026511;28;20029;-60
2023/06/06 06:17:39;;;;;;;6.53;4.00;;;;;;;;;;5030814;28;20056;-60
2023/06/06 06:20:09;;;;;;;5.65;4.30;;;;;;;;;;5025866;28;20037;-59
2023/06/06 06:22:35;;;;;;;4.22;3.80;;;;;;;;;;5027689;28;20037;-59
2023/06/06 06:25:08;;;;;;;5.13;3.70;;;;;;;;;;5030499;28;20052;-58
2023/06/06 06:27:37;;;;;;;5.57;4.32;;;;;;;;;;5020602;28;20379;-59
2023/06/06 06:30:04;;;;;;;5.00;3.53;;;;;;;;;;5021980;28;20046;-59
2023/06/06 06:32:36;;;;;;;5.55;3.95;;;;;;;;;;5021427;28;20044;-59
2023/06/06 06:35:03;;;;;;;5.05;4.05;;;;;;;;;;5030941;28;20029;-60
2023/06/06 06:37:31;;;;;;;6.15;4.10;;;;;;;;;;5017813;28;20519;-60
2023/06/06 06:40:00;;;;;;;9.48;3.70;;;;;;;;;;5004735;28;20034;-60
2023/06/06 06:42:26;;;;;;;;;;;;;;;;;;5027422;28;20118;-60
2023/06/06 06:45:10;;;;;;;5.15;3.95;;;;;;;;;;5010296;28;19914;-60
2023/06/06 06:47:36;;;;;;;4.85;3.97;;;;;;;;;;5024765;28;20071;-60
2023/06/06 06:50:06;;;;;;;5.88;3.67;;;;;;;;;;5014409;28;20044;-60
2023/06/06 06:52:33;;;;;;;7.88;4.43;;;;;;;;;;5023074;28;20041;-60
2023/06/06 06:55:01;;;;;;;5.22;4.07;;;;;;;;;;4984093;28;20056;-59
2023/06/06 06:57:28;;;;;;;6.55;3.95;;;;;;;;;;5013233;28;20054;-59
2023/06/06 06:59:59;;;;;;;6.32;3.83;;;;;;;;;;5024531;28;20068;-60
2023/06/06 07:02:27;;;;;;;4.50;3.60;;;;;;;;;;5026744;28;20496;-59
2023/06/06 07:04:59;;;;;;;5.03;3.95;;;;;;;;;;5031757;28;20431;-60
2023/06/06 07:07:25;;;;;;;6.53;3.72;;;;;;;;;;5016404;28;20057;-59
2023/06/06 07:09:52;;;;;;;5.45;4.03;;;;;;;;;;5006982;28;20049;-59
2023/06/06 07:12:20;;;;;;;4.32;3.53;;;;;;;;;;5028065;28;20042;-60
2023/06/06 07:14:46;;;;;;;5.03;4.00;;;;;;;;;;5015047;28;20038;-59
2023/06/06 07:17:15;;;;;;;8.65;4.15;;;;;;;;;;5020174;28;20060;-60
2023/06/06 07:19:44;;;;;;;7.22;4.20;;;;;;;;;;5025122;28;20407;-60
2023/06/06 07:22:10;;;;;;;4.55;3.80;;;;;;;;;;5029158;28;20045;-59
2023/06/06 07:24:36;;;;;;;7.75;3.85;;;;;;;;;;5019501;28;20045;-61
2023/06/06 07:27:04;;;;;;;7.40;3.60;;;;;;;;;;5020502;28;20052;-60
2023/06/06 07:29:30;;;;;;;6.03;4.10;;;;;;;;;;5023869;28;20412;-61
2023/06/06 07:31:56;;;;;;;5.97;3.85;;;;;;;;;;5027236;28;20108;-60
2023/06/06 07:34:23;;;;;;;6.53;4.43;;;;;;;;;;5004494;28;20041;-60
2023/06/06 07:36:49;;;;;;;8.27;5.82;;;;;;;;;;5022233;28;20046;-60
2023/06/06 07:39:16;;;;;;;10.07;5.45;;;;;;;;;;5024342;28;20048;-60
2023/06/06 07:41:42;;;;;;;6.95;4.30;;;;;;;;;;5022094;28;20418;-60
2023/06/06 07:44:09;;;;;;;7.60;4.00;;;;;;;;;;5016506;28;20057;-58
2023/06/06 07:46:35;;;;;;;4.38;3.63;;;;;;;;;;5024927;28;20506;-60
2023/06/06 07:49:01;;;;;;;5.90;3.63;;;;;;;;;;5028981;28;20055;-60
2023/06/06 07:51:28;;;;;;;6.43;3.65;;;;;;;;;;5009163;28;20036;-60
2023/06/06 07:53:54;;;;;;;5.65;3.90;;;;;;;;;;5030113;28;20029;-60
2023/06/06 07:56:21;;;;;;;6.32;4.05;;;;;;;;;;5018901;28;20225;-60
2023/06/06 07:58:52;;;;;;;4.20;3.58;;;;;;;;;;5025639;28;20040;-60
2023/06/06 08:01:20;;;;;;;8.13;3.95;;;;;;;;;;5005358;28;20037;-60
2023/06/06 08:03:49;;;;;;;8.02;3.95;;;;;;;;;;5030601;28;20060;-60
2023/06/06 08:06:17;;;;;;;6.68;3.47;;;;;;;;;;5003071;28;20422;-60
2023/06/06 08:08:46;;;;;;;5.93;3.92;;;;;;;;;;5022613;28;20040;-60
2023/06/06 08:11:13;;;;;;;6.97;3.70;;;;;;;;;;5019278;28;20033;-60
2023/06/06 08:13:39;;;;;;;6.72;3.95;;;;;;;;;;5030663;28;20030;-59
2023/06/06 08:16:05;;;;;;;6.95;4.68;;;;;;;;;;5019929;28;20044;-59
2023/06/06 08:18:31;;;;;;;7.47;4.15;;;;;;;;;;5019574;28;20061;-61
2023/06/06 08:20:58;;;;;;;5.07;3.60;;;;;;;;;;4993721;28;20034;-61
2023/06/06 08:23:24;;;;;;;7.95;4.35;;;;;;;;;;5020515;28;20049;-61
2023/06/06 08:25:55;;;;;;;4.82;3.83;;;;;;;;;;5024994;28;20041;-59
2023/06/06 08:28:25;;;;;;;6.43;3.90;;;;;;;;;;5010030;28;20041;-59
2023/06/06 08:30:52;;;;;;;6.78;4.10;;;;;;;;;;5026973;28;20047;-59
2023/06/06 08:33:19;;;;;;;4.75;3.58;;;;;;;;;;5015041;28;20491;-60
2023/06/06 08:35:46;;;;;;;5.88;3.55;;;;;;;;;;5021352;28;20030;-61
2023/06/06 08:38:13;;;;;;;6.85;3.63;;;;;;;;;;4992196;28;20056;-60
2023/06/06 08:40:39;;;;;;;7.03;3.80;;;;;;;;;;5026914;28;20036;-59
2023/06/06 08:43:07;;;;;;;4.72;3.72;;;;;;;;;;5018942;28;20145;-60
2023/06/06 08:45:33;;;;;;;4.95;3.88;;;;;;;;;;5017361;28;20034;-60
2023/06/06 08:48:02;;;;;;;5.82;4.40;;;;;;;;;;5003155;28;20049;-60
2023/06/06 08:50:30;;;;;;;5.00;3.67;;;;;;;;;;5030045;28;20051;-61
2023/06/06 08:52:56;;;;;;;4.65;3.78;;;;;;;;;;5016176;28;20551;-61
2023/06/06 08:55:23;;;;;;;7.90;4.20;;;;;;;;;;4999846;28;20411;-61
2023/06/06 08:57:51;;;;;;;4.93;3.65;;;;;;;;;;5022436;28;20038;-61
2023/06/06 09:00:21;;;;;;;6.88;4.47;;;;;;;;;;5025171;28;20041;-61
2023/06/06 09:02:47;;;;;;;6.53;3.83;;;;;;;;;;5014045;28;20045;-61
2023/06/06 09:05:18;;;;;;;5.85;4.28;;;;;;;;;;5011437;28;20057;-60
2023/06/06 09:07:46;;;;;;;6.50;3.92;;;;;;;;;;5018902;28;20527;-60
2023/06/06 09:10:12;;;;;;;5.65;3.80;;;;;;;;;;5021157;28;20041;-61
2023/06/06 09:12:42;;;;;;;6.55;4.15;;;;;;;;;;5029288;28;20400;-60
2023/06/06 09:15:10;;;;;;;5.25;4.28;;;;;;;;;;5019814;28;20063;-60
2023/06/06 09:17:37;;;;;;;5.18;3.72;;;;;;;;;;5026794;28;20045;-60
2023/06/06 09:20:08;;;;;;;8.75;4.55;;;;;;;;;;5010762;28;20049;-60
2023/06/06 09:22:41;;;;;;;6.93;4.22;;;;;;;;;;5015308;28;20529;-60
2023/06/06 09:25:21;;;;;;;7.45;4.75;;;;;;;;;;5014235;28;20231;-60
2023/06/06 09:27:52;;;;;;;5.90;4.40;;;;;;;;;;5019336;28;20431;-61
2023/06/06 09:30:21;;;;;;;5.10;4.13;;;;;;;;;;5010296;28;20041;-61
2023/06/06 09:33:04;;;;;;;7.57;4.25;;;;;;;;;;5020458;28;20046;-60
2023/06/06 09:35:42;;;;;;;7.22;4.47;;;;;;;;;;5019784;28;20040;-61
2023/06/06 09:38:16;;;;;;;6.15;4.38;;;;;;;;;;5013188;28;20522;-60
2023/06/06 09:40:47;;;;;;;5.63;4.60;;;;;;;;;;5018660;28;20538;-61
2023/06/06 09:43:15;;;;;;;7.47;4.65;;;;;;;;;;5020394;28;20704;-61
2023/06/06 09:46:04;;;;;;;6.50;4.55;;;;;;;;;;5017040;28;20061;-61
2023/06/06 09:48:30;;;;;;;7.05;5.00;;;;;;;;;;4995544;28;20034;-61
2023/06/06 09:50:57;;;;;;;7.60;5.32;;;;;;;;;;5024134;28;20106;-61
2023/06/06 09:53:24;;;;;;;10.63;5.60;;;;;;;;;;5028188;28;20061;-61
2023/06/06 09:55:51;;;;;;;7.68;5.15;;;;;;;;;;5029590;28;20037;-62
2023/06/06 09:58:20;;;;;;;7.85;5.40;;;;;;;;;;5019484;28;20090;-61
2023/06/06 10:00:48;;;;;;;6.88;4.85;;;;;;;;;;5021945;28;20046;-62
2023/06/06 10:03:22;;;;;;;10.05;5.13;;;;;;;;;;5026668;28;20037;-61
2023/06/06 10:05:49;;;;;;;10.13;5.10;;;;;;;;;;5019117;28;20041;-62
2023/06/06 10:08:21;;;;;;;9.45;5.55;;;;;;;;;;5024565;28;20046;-62
2023/06/06 10:10:49;;;;;;;6.57;4.88;;;;;;;;;;5023592;28;20045;-61
2023/06/06 10:13:17;;;;;;;5.87;5.07;;;;;;;;;;5006026;28;20033;-62
2023/06/06 10:15:44;;;;;;;7.35;5.32;;;;;;;;;;5021592;28;20053;-62
2023/06/06 10:18:12;;;;;;;6.03;5.43;;;;;;;;;;5025554;28;20057;-62
2023/06/06 10:20:44;;;;;;;8.02;5.30;;;;;;;;;;5023576;28;20052;-62
2023/06/06 10:23:10;;;;;;;8.10;5.45;;;;;;;;;;5018805;28;20030;-62
2023/06/06 10:25:37;;;;;;;8.80;5.80;;;;;;;;;;5025604;28;20029;-62
2023/06/06 10:28:28;;;;;;;7.28;5.40;;;;;;;;;;5019670;28;20048;-62
2023/06/06 10:31:00;;;;;;;7.25;5.22;;;;;;;;;;5013489;28;20522;-62
2023/06/06 10:33:41;;;;;;;7.35;5.03;;;;;;;;;;5026783;28;20038;-62
2023/06/06 10:36:09;;;;;;;8.40;5.28;;;;;;;;;;5018871;28;20038;-62
2023/06/06 10:38:37;;;;;;;7.47;5.30;;;;;;;;;;5028712;28;20045;-63
2023/06/06 10:41:17;;;;;;;9.73;5.45;;;;;;;;;;5020925;28;20654;-62
2023/06/06 10:43:46;;;;;;;7.15;5.72;;;;;;;;;;5021346;28;20056;-62
2023/06/06 10:46:12;;;;;;;7.63;5.90;;;;;;;;;;5020615;28;20515;-62
2023/06/06 10:48:43;;;;;;;7.57;5.47;;;;;;;;;;5030801;28;20041;-62
2023/06/06 10:51:24;;;;;;;9.65;5.88;;;;;;;;;;5027313;28;20049;-63
2023/06/06 10:54:20;;;;;;;7.72;5.40;;;;;;;;;;5018620;28;20388;-61
2023/06/06 10:56:56;;;;;;;7.35;5.55;;;;;;;;;;5015766;28;20121;-62
2023/06/06 10:59:27;;;;;;;8.10;5.18;;;;;;;;;;5027171;28;20037;-62
2023/06/06 11:01:54;;;;;;;9.70;5.70;;;;;;;;;;5025978;28;20380;-62
2023/06/06 11:04:25;;;;;;;6.22;5.40;;;;;;;;;;5007903;28;20045;-63
2023/06/06 11:07:14;;;;;;;7.50;5.30;;;;;;;;;;5020582;28;20415;-62
2023/06/06 11:09:42;;;;;;;7.05;5.28;;;;;;;;;;5019762;28;20026;-63
2023/06/06 11:12:14;;;;;;;7.45;5.20;;;;;;;;;;5020929;28;20045;-62
2023/06/06 11:15:05;;;;;;;8.43;5.72;;;;;;;;;;5031228;28;20041;-63
2023/06/06 11:17:47;;;;;;;6.63;5.20;;;;;;;;;;5004025;28;20495;-62
2023/06/06 11:20:18;;;;;;;8.70;5.60;;;;;;;;;;5021640;28;20044;-62
2023/06/06 11:23:06;;;;;;;8.80;5.60;;;;;;;;;;5015355;28;20195;-59
2023/06/06 11:25:36;;;;;;;5.90;4.80;;;;;;;;;;5016856;28;20034;-64
2023/06/06 11:28:06;;;;;;;8.23;5.55;;;;;;;;;;5009945;28;20038;-66
2023/06/06 11:30:33;;;;;;;7.55;5.47;;;;;;;;;;5024572;28;20046;-66
2023/06/06 11:33:00;;;;;;;8.02;5.45;;;;;;;;;;5028281;28;20041;-67
2023/06/06 11:35:32;;;;;;;9.27;5.97;;;;;;;;;;5026487;28;20029;-68
2023/06/06 11:37:58;;;;;;;6.82;5.55;;;;;;;;;;5025967;28;20029;-69
2023/06/06 11:40:26;;;;;;;7.93;5.43;;;;;;;;;;5024121;28;20069;-69
2023/06/06 11:42:52;;;;;;;8.52;5.75;;;;;;;;;;5016765;28;20061;-68
2023/06/06 11:45:19;;;;;;;7.50;5.53;;;;;;;;;;5016158;28;20423;-69
2023/06/06 11:47:46;;;;;;;7.97;5.50;;;;;;;;;;5019513;28;20038;-68
2023/06/06 11:50:12;;;;;;;7.88;5.53;;;;;;;;;;5015970;28;20384;-68
2023/06/06 11:52:44;;;;;;;9.02;5.40;;;;;;;;;;5019735;28;20034;-68
2023/06/06 11:55:10;;;;;;;7.72;5.32;;;;;;;;;;5023224;28;20475;-68
2023/06/06 11:57:37;;;;;;;8.38;5.65;;;;;;;;;;5005848;28;20057;-67
2023/06/06 12:00:23;;;;;;;7.70;5.40;;;;;;;;;;5022319;28;20029;-68
2023/06/06 12:02:51;;;;;;;10.40;6.28;;;;;;;;;;5020954;28;20046;-71
2023/06/06 12:05:19;;;;;;;6.20;5.22;;;;;;;;;;5018013;28;20060;-73
2023/06/06 12:07:49;;;;;;;6.97;5.32;;;;;;;;;;5028447;28;20037;-72
2023/06/06 12:10:23;;;;;;;10.27;5.95;;;;;;;;;;5025330;28;20045;-72
2023/06/06 12:12:49;;;;;;;11.38;5.82;;;;;;;;;;5024857;28;20381;-70
2023/06/06 12:15:16;;;;;;;7.28;6.15;;;;;;;;;;5029428;28;20045;-66
2023/06/06 12:17:42;;;;;;;11.48;6.63;;;;;;;;;;5018153;28;20049;-65
2023/06/06 12:20:10;;;;;;;9.95;5.63;;;;;;;;;;5009675;28;20048;-66
2023/06/06 12:22:36;;;;;;;7.30;5.60;;;;;;;;;;5025060;28;20042;-64
2023/06/06 12:25:04;;;;;;;8.70;5.30;;;;;;;;;;5016917;28;20097;-64
2023/06/06 12:27:36;;;;;;;8.65;5.53;;;;;;;;;;5015944;28;20372;-63
2023/06/06 12:30:04;;;;;;;8.73;5.97;;;;;;;;;;5028473;28;20045;-68
2023/06/06 12:32:31;;;;;;;6.95;5.43;;;;;;;;;;5017612;28;20498;-64
2023/06/06 12:34:59;;;;;;;8.82;5.25;;;;;;;;;;5014874;28;20029;-64
2023/06/06 12:37:34;;;;;;;7.65;5.30;;;;;;;;;;5017947;28;20037;-63
2023/06/06 12:40:33;;;;;;;7.75;5.90;;;;;;;;;;5023754;28;20048;-63
2023/06/06 12:43:08;;;;;;;11.90;5.60;;;;;;;;;;5012289;28;20049;-63
2023/06/06 12:45:36;;;;;;;10.50;5.80;;;;;;;;;;5016724;28;20078;-67
2023/06/06 12:48:02;;;;;;;16.08;5.90;;;;;;;;;;5024295;28;20037;-65
2023/06/06 12:50:29;;;;;;;12.60;5.47;;;;;;;;;;5026422;28;20057;-65
2023/06/06 12:52:55;;;;;;;32.88;6.50;;;;;;;;;;5004392;28;20053;-65
2023/06/06 12:55:21;;;;;;;10.23;5.75;;;;;;;;;;5015946;28;20041;-65
2023/06/06 12:57:47;;;;;;;8.93;5.72;;;;;;;;;;5011263;28;20050;-65
2023/06/06 13:00:16;;;;;;;6.90;5.68;;;;;;;;;;5026773;28;20077;-65
2023/06/06 13:02:43;;;;;;;10.98;5.85;;;;;;;;;;5029519;28;20033;-64
2023/06/06 13:05:10;;;;;;;11.80;6.13;;;;;;;;;;5028549;28;20033;-64
2023/06/06 13:07:37;;;;;;;8.35;5.85;;;;;;;;;;5021830;28;20065;-64
2023/06/06 13:10:08;;;;;;;10.63;6.13;;;;;;;;;;5017570;28;20053;-64
2023/06/06 13:12:42;;;;;;;11.80;6.75;;;;;;;;;;5028910;28;20072;-67
2023/06/06 13:15:09;;;;;;;7.30;5.93;;;;;;;;;;5008123;28;20042;-68
2023/06/06 13:17:36;;;;;;;13.63;6.78;;;;;;;;;;5013553;28;20416;-66
2023/06/06 13:20:06;;;;;;;8.45;6.13;;;;;;;;;;5026682;28;20049;-70
2023/06/06 13:22:32;;;;;;;10.82;6.53;;;;;;;;;;5015168;28;20049;-66
2023/06/06 13:24:58;;;;;;;9.88;6.07;;;;;;;;;;5017769;28;20048;-68
2023/06/06 13:27:24;;;;;;;8.68;6.68;;;;;;;;;;5014722;28;20049;-66
2023/06/06 13:29:50;;;;;;;9.88;6.53;;;;;;;;;;5028370;28;20053;-66
2023/06/06 13:32:16;;;;;;;9.60;6.32;;;;;;;;;;5024508;28;20041;-69
2023/06/06 13:34:43;;;;;;;8.30;5.90;;;;;;;;;;5011393;28;20038;-67
2023/06/06 13:37:09;;;;;;;10.60;6.55;;;;;;;;;;5015251;28;20090;-65
2023/06/06 13:39:35;;;;;;;9.73;6.38;;;;;;;;;;5017289;28;20053;-65
2023/06/06 13:42:01;;;;;;;9.85;6.78;;;;;;;;;;5026008;28;20516;-61
2023/06/06 13:44:27;;;;;;;8.80;6.32;;;;;;;;;;5013887;28;20045;-62
2023/06/06 13:46:53;;;;;;;8.88;6.53;;;;;;;;;;5017104;28;20690;-62
2023/06/06 13:49:20;;;;;;;11.15;6.70;;;;;;;;;;5016050;28;20037;-62
2023/06/06 13:51:46;;;;;;;7.95;6.25;;;;;;;;;;5029287;28;20522;-63
2023/06/06 13:54:13;;;;;;;9.85;6.38;;;;;;;;;;5015866;28;20038;-64
2023/06/06 13:56:44;;;;;;;7.57;5.82;;;;;;;;;;5020280;28;20049;-63
2023/06/06 13:59:10;;;;;;;8.65;6.10;;;;;;;;;;5028340;28;20034;-63
2023/06/06 14:01:40;;;;;;;9.43;6.25;;;;;;;;;;5018592;28;20049;-64
2023/06/06 14:04:06;;;;;;;8.23;5.50;;;;;;;;;;5017061;28;20040;-65
2023/06/06 14:06:35;;;;;;;9.93;5.60;;;;;;;;;;5011128;28;20049;-65
2023/06/06 14:09:01;;;;;;;6.93;5.97;;;;;;;;;;5024487;28;20533;-63
2023/06/06 14:11:28;;;;;;;8.43;5.85;;;;;;;;;;5023328;28;20033;-65
2023/06/06 14:13:54;;;;;;;9.35;5.70;;;;;;;;;;5024862;28;20120;-64
2023/06/06 14:16:20;;;;;;;8.48;6.40;;;;;;;;;;5008252;28;20037;-66
2023/06/06 14:18:53;;;;;;;9.00;6.00;;;;;;;;;;5013664;28;20049;-65
2023/06/06 14:21:28;;;;;;;6.60;5.65;;;;;;;;;;5016803;28;20518;-65
2023/06/06 14:23:54;;;;;;;8.23;6.13;;;;;;;;;;5027327;28;20037;-65
2023/06/06 14:26:21;;;;;;;8.57;6.15;;;;;;;;;;5027075;28;20058;-63
2023/06/06 14:28:49;;;;;;;8.10;5.40;;;;;;;;;;5012962;28;20042;-65
2023/06/06 14:31:16;;;;;;;10.27;6.20;;;;;;;;;;5027578;28;20064;-65
2023/06/06 14:33:46;;;;;;;11.18;6.18;;;;;;;;;;5020904;28;20040;-65
2023/06/06 14:36:12;;;;;;;7.82;5.82;;;;;;;;;;5007015;28;20479;-62
2023/06/06 14:38:39;;;;;;;9.68;6.10;;;;;;;;;;5018056;28;20054;-63
2023/06/06 14:41:05;;;;;;;9.73;5.97;;;;;;;;;;5019694;28;20041;-62
2023/06/06 14:43:31;;;;;;;11.45;5.85;;;;;;;;;;5021300;28;20427;-62
2023/06/06 14:45:57;;;;;;;7.95;5.68;;;;;;;;;;5019507;28;20030;-62